Sophia Golding — WDG4196 — position and weather

sailwx.info

Track history (hours):
 
Tides and Currents Weather Stations Pressure Air Temp Water Temp Dewpoint Dewpoint Depression Visibility Wind Speed Wind Dir Waves Ship Positions

Sophia Golding

Owner: GOLDING BARGE LINE, INC, VICKSBURG, MS. More information available from US FCC via Universal Licensing System and Coast Guard Vessel Documentation Center.

Last reported at 2018-Apr-23 22:55 UTC. Time now 2018-Apr-25 06:54 UTC.
Position N 31°58' W 091°11'.

Length 29 m; draft 2.9 m.

Type: . MMSI: 367534010.

Date/timePositionNaut miles runAvg speedWind from/ knotsBaromVisibWave heightAir tempDewpointWater temp
2018-Apr-23 22:55N 31°58' W 091°11'5 9.7
2018-Apr-23 22:26N 31°60' W 091°06'510.2
2018-Apr-23 21:59N 32°04' W 091°04'4 9.2
2018-Apr-23 21:31N 32°08' W 091°06'5 9.6
2018-Apr-23 21:00N 32°08' W 091°01'510.7
2018-Apr-23 20:31N 32°13' W 090°59'5 9.7
2018-Apr-23 20:00N 32°17' W 090°56'3 7.0
2018-Apr-23 19:30N 32°21' W 090°56'4 8.1
2018-Apr-23 19:00N 32°23' W 090°60'5 9.1
2018-Apr-23 18:31N 32°26' W 091°04'5 9.2
2018-Apr-23 17:55N 32°31' W 091°06'4 9.7
2018-Apr-23 17:31N 32°35' W 091°08'  
Track history (hours):
 
Tides and Currents Weather Stations Pressure Air Temp Water Temp Dewpoint Dewpoint Depression Visibility Wind Speed Wind Dir Waves Ship Positions

Sophia Golding

Owner: GOLDING BARGE LINE, INC, VICKSBURG, MS. More information available from US FCC via Universal Licensing System and Coast Guard Vessel Documentation Center.

Last reported at 2018-Apr-23 22:55 UTC. Time now 2018-Apr-25 06:54 UTC.
Position N 31°58' W 091°11'.

Length 29 m; draft 2.9 m.

Type: . MMSI: 367534010.

Date/timePositionNaut miles runAvg speedWind from/ knotsBaromVisibWave heightAir tempDewpointWater temp
2018-Apr-23 22:55N 31°58' W 091°11'5 9.7
2018-Apr-23 22:26N 31°60' W 091°06'510.2
2018-Apr-23 21:59N 32°04' W 091°04'4 9.2
2018-Apr-23 21:31N 32°08' W 091°06'5 9.6
2018-Apr-23 21:00N 32°08' W 091°01'510.7
2018-Apr-23 20:31N 32°13' W 090°59'5 9.7
2018-Apr-23 20:00N 32°17' W 090°56'3 7.0
2018-Apr-23 19:30N 32°21' W 090°56'4 8.1
2018-Apr-23 19:00N 32°23' W 090°60'5 9.1
2018-Apr-23 18:31N 32°26' W 091°04'5 9.2
2018-Apr-23 17:55N 32°31' W 091°06'4 9.7
2018-Apr-23 17:31N 32°35' W 091°08'  

Dump ship's entire track history